| time (UTC) | temp C | wind direction | speed KPH | gust KPH | rain 1hr cm | rain 24hr cm | rain mn cm | humidity % | barometer mb |
| 20260510081237 | 13 | 265 | 6.4 | 6.4 | 0.00 | 0.00 | 0.00 | 84 | 1010.0 |
| 20260510080745 | 13 | 138 | 6.4 | 6.4 | 0.00 | 0.00 | 0.00 | 84 | 1010.0 |
| 20260510080250 | 13 | 174 | 4.8 | 4.8 | 0.00 | 0.00 | 0.00 | 84 | 1010.0 |
| 20260510075739 | 13 | 36 | 6.4 | 6.4 | 0.00 | 0.00 | 0.00 | 84 | 1010.0 |
| 20260510075239 | 13 | 282 | 4.8 | 4.8 | 0.00 | 0.00 | 0.00 | 85 | 1010.0 |
| 20260510074735 | 13 | 257 | 6.4 | 6.4 | 0.00 | 0.00 | 0.00 | 85 | 1010.0 |
| 20260510074244 | 13 | 301 | 4.8 | 4.8 | 0.00 | 0.00 | 0.00 | 85 | 1010.0 |
| 20260510073741 | 13 | 318 | 4.8 | 4.8 | 0.00 | 0.00 | 0.00 | 86 | 1010.0 |
| 20260510072948 | 13 | 209 | 6.4 | 6.4 | 0.00 | 0.00 | 0.00 | 85 | 1010.0 |
| 20260510072447 | 13 | 95 | 8.0 | 8.0 | 0.00 | 0.00 | 0.00 | 85 | 1010.0 |
| 20260510071956 | 13 | 312 | 4.8 | 4.8 | 0.00 | 0.00 | 0.00 | 86 | 1010.0 |
| 20260510071459 | 13 | 198 | 6.4 | 6.4 | 0.00 | 0.00 | 0.00 | 86 | 1010.0 |
| 20260510071005 | 13 | 306 | 8.0 | 8.0 | 0.00 | 0.00 | 0.00 | 86 | 1010.0 |
| 20260510070506 | 13 | 229 | 4.8 | 4.8 | 0.00 | 0.00 | 0.00 | 86 | 1010.0 |
| 20260510065849 | 13 | 272 | 6.4 | 6.4 | 0.00 | 0.00 | 0.00 | 86 | 1010.0 |
| 20260510065349 | 13 | 294 | 4.8 | 4.8 | 0.00 | 0.00 | 0.00 | 86 | 1010.0 |
| 20260510064846 | 13 | 280 | 6.4 | 6.4 | 0.00 | 0.00 | 0.00 | 87 | 1010.0 |
| 20260510064144 | 12 | 24 | 4.8 | 4.8 | 0.00 | 0.00 | 0.00 | 88 | 1010.0 |
| 20260510063644 | 12 | 120 | 6.4 | 6.4 | 0.00 | 0.00 | 0.00 | 87 | 1010.0 |
| 20260510063129 | 13 | 233 | 4.8 | 4.8 | 0.00 | 0.00 | 0.00 | 87 | 1010.0 |
| 20260510062625 | 13 | 84 | 4.8 | 4.8 | 0.00 | 0.00 | 0.00 | 88 | 1010.0 |
| 20260510062135 | 12 | 324 | 4.8 | 4.8 | 0.00 | 0.00 | 0.00 | 88 | 1010.0 |
| 20260510061558 | 12 | 72 | 6.4 | 6.4 | 0.00 | 0.00 | 0.00 | 88 | 1010.0 |
| 20260510061101 | 12 | 330 | 6.4 | 6.4 | 0.00 | 0.00 | 0.00 | 89 | 1010.0 |
| 20260510060405 | 12 | 114 | 4.8 | 4.8 | 0.00 | 0.00 | 0.00 | 89 | 1010.0 |
| 20260510055850 | 12 | 132 | 6.4 | 6.4 | 0.00 | 0.00 | 0.00 | 90 | 1010.0 |
| 20260510055157 | 12 | 144 | 8.0 | 8.0 | 0.00 | 0.00 | 0.00 | 90 | 1010.0 |
| 20260510054023 | 12 | 283 | 4.8 | 4.8 | 0.00 | 0.00 | 0.00 | 91 | 1010.0 |
| 20260510053525 | 11 | 315 | 4.8 | 4.8 | 0.00 | 0.00 | 0.00 | 91 | 1010.0 |
| 20260510053029 | 11 | 258 | 4.8 | 4.8 | 0.00 | 0.00 | 0.00 | 92 | 1010.0 |
| 20260510052529 | 11 | 234 | 4.8 | 4.8 | 0.00 | 0.00 | 0.00 | 92 | 1010.0 |
| 20260510052010 | 11 | 126 | 4.8 | 4.8 | 0.00 | 0.00 | 0.00 | 92 | 1010.0 |
| 20260510051039 | 11 | 132 | 4.8 | 4.8 | 0.00 | 0.00 | 0.00 | 92 | 1010.0 |
| 20260510050124 | 11 | 251 | 8.0 | 8.0 | 0.00 | 0.00 | 0.00 | 92 | 1010.0 |
| 20260510045312 | 11 | 204 | 8.0 | 8.0 | 0.00 | 0.00 | 0.00 | 92 | 1009.0 |
| 20260510044541 | 11 | 307 | 4.8 | 4.8 | 0.00 | 0.00 | 0.00 | 92 | 1009.0 |
| 20260510043728 | 11 | 227 | 4.8 | 4.8 | 0.00 | 0.00 | 0.00 | 92 | 1009.0 |
| 20260510043105 | 11 | 298 | 6.4 | 6.4 | 0.00 | 0.00 | 0.00 | 92 | 1009.0 |
| 20260510042511 | 11 | 253 | 6.4 | 6.4 | 0.00 | 0.00 | 0.00 | 92 | 1009.0 |
| 20260510041944 | 11 | 324 | 4.8 | 4.8 | 0.00 | 0.00 | 0.00 | 91 | 1009.0 |
| 20260510041712 | 11 | 298 | 4.8 | 4.8 | 0.00 | 0.00 | 0.00 | 92 | 1009.0 |
| 20260510041211 | 11 | 241 | 4.8 | 4.8 | 0.00 | 0.00 | 0.00 | 92 | 1009.0 |
| 20260510040940 | 11 | 283 | 8.0 | 8.0 | 0.00 | 0.00 | 0.00 | 91 | 1009.0 |
| 20260510040518 | 11 | 330 | 4.8 | 4.8 | 0.00 | 0.00 | 0.00 | 92 | 1009.0 |
| 20260510040026 | 11 | 348 | 6.4 | 6.4 | 0.00 | 0.00 | 0.00 | 92 | 1009.0 |
| 20260510035531 | 11 | 292 | 11.3 | 12.9 | 0.00 | 0.00 | 0.00 | 91 | 1010.0 |
| 20260510034958 | 11 | 262 | 4.8 | 4.8 | 0.00 | 0.00 | 0.00 | 91 | 1010.0 |
| 20260510034429 | 11 | 283 | 4.8 | 4.8 | 0.00 | 0.00 | 0.00 | 91 | 1010.0 |
| 20260510033709 | 11 | 251 | 4.8 | 4.8 | 0.00 | 0.00 | 0.00 | 91 | 1010.0 |
| 20260510032852 | 11 | 258 | 4.8 | 4.8 | 0.00 | 0.00 | 0.00 | 91 | 1010.0 |
| 20260510032436 | 11 | 276 | 4.8 | 4.8 | 0.00 | 0.00 | 0.00 | 91 | 1010.0 |
| 20260510032137 | 11 | 195 | 4.8 | 4.8 | 0.00 | 0.00 | 0.00 | 91 | 1010.0 |
| 20260510030759 | 12 | 263 | 11.3 | 12.9 | 0.00 | 0.00 | 0.00 | 91 | 1010.0 |
| 20260510025558 | 12 | 198 | 4.8 | 4.8 | 0.00 | 0.00 | 0.00 | 90 | 1010.0 |
| 20260510023820 | 12 | 191 | 6.4 | 6.4 | 0.00 | 0.00 | 0.00 | 90 | 1010.0 |
| 20260510023236 | 12 | 279 | 8.0 | 8.0 | 0.00 | 0.00 | 0.00 | 90 | 1010.0 |
| 20260510022631 | 12 | 227 | 4.8 | 4.8 | 0.00 | 0.00 | 0.00 | 90 | 1010.0 |
| 20260510021818 | 12 | 246 | 6.4 | 6.4 | 0.00 | 0.00 | 0.00 | 90 | 1010.0 |
| 20260510020118 | 12 | 293 | 6.4 | 6.4 | 0.00 | 0.00 | 0.00 | 90 | 1010.0 |
| 20260510013648 | 12 | 324 | 4.8 | 4.8 | 0.00 | 0.00 | 0.00 | 88 | 1010.0 |
| 20260510013146 | 12 | 282 | 6.4 | 6.4 | 0.00 | 0.00 | 0.00 | 88 | 1011.0 |
| 20260510013004 | 12 | 252 | 4.8 | 4.8 | 0.00 | 0.00 | 0.00 | 88 | 1011.0 |
| 20260510012650 | 12 | 276 | 6.4 | 6.4 | 0.00 | 0.00 | 0.00 | 88 | 1011.0 |
| 20260510012151 | 13 | 95 | 11.3 | 11.3 | 0.00 | 0.00 | 0.00 | 87 | 1011.0 |
| 20260510011715 | 13 | 262 | 6.4 | 6.4 | 0.00 | 0.00 | 0.00 | 87 | 1011.0 |
| 20260510011659 | 13 | 338 | 6.4 | 6.4 | 0.00 | 0.00 | 0.00 | 87 | 1011.0 |
| 20260510011201 | 13 | 348 | 6.4 | 6.4 | 0.00 | 0.00 | 0.00 | 87 | 1011.0 |
| 20260510010655 | 13 | 310 | 4.8 | 4.8 | 0.00 | 0.00 | 0.00 | 86 | 1011.0 |
| 20260510010509 | 13 | 42 | 4.8 | 4.8 | 0.00 | 0.00 | 0.00 | 86 | 1011.0 |
| 20260510010153 | 13 | 306 | 4.8 | 4.8 | 0.00 | 0.00 | 0.00 | 86 | 1011.0 |
| 20260510005658 | 13 | 343 | 8.0 | 8.0 | 0.00 | 0.00 | 0.00 | 86 | 1011.0 |
| 20260510005200 | 13 | 263 | 4.8 | 4.8 | 0.00 | 0.00 | 0.00 | 86 | 1011.0 |
| 20260510004657 | 13 | 281 | 4.8 | 4.8 | 0.00 | 0.00 | 0.00 | 86 | 1011.0 |
| 20260510004057 | 13 | 354 | 4.8 | 4.8 | 0.00 | 0.00 | 0.00 | 86 | 1011.0 |
| 20260510003509 | 13 | 246 | 4.8 | 4.8 | 0.00 | 0.00 | 0.00 | 86 | 1011.0 |
| 20260510002909 | 13 | 221 | 4.8 | 4.8 | 0.00 | 0.00 | 0.00 | 87 | 1011.0 |
| 20260510002409 | 13 | 258 | 4.8 | 4.8 | 0.00 | 0.00 | 0.00 | 87 | 1012.0 |
| 20260510002232 | 13 | 253 | 6.4 | 6.4 | 0.00 | 0.00 | 0.00 | 87 | 1012.0 |
| 20260510001827 | 13 | 330 | 4.8 | 4.8 | 0.00 | 0.00 | 0.00 | 87 | 1012.0 |
| 20260510001330 | 13 | 292 | 6.4 | 6.4 | 0.00 | 0.00 | 0.00 | 87 | 1012.0 |
| 20260510000812 | 13 | 251 | 6.4 | 6.4 | 0.00 | 0.00 | 0.00 | 87 | 1012.0 |
| 20260510000253 | 13 | 228 | 8.0 | 8.0 | 0.00 | 0.00 | 0.00 | 87 | 1012.0 |
| 20260510000218 | 13 | 54 | 4.8 | 4.8 | 0.00 | 0.00 | 0.00 | 87 | 1012.0 |
| 20260509235719 | 13 | 221 | 6.4 | 6.4 | 0.00 | 0.00 | 0.00 | 87 | 1012.0 |
| 20260509235219 | 13 | 24 | 6.4 | 6.4 | 0.00 | 0.00 | 0.00 | 87 | 1012.0 |
| 20260509234715 | 13 | 132 | 8.0 | 8.0 | 0.00 | 0.00 | 0.00 | 87 | 1012.0 |
| 20260509234701 | 13 | 229 | 16.1 | 16.1 | 0.00 | 0.00 | 0.00 | 87 | 1012.0 |
| 20260509234159 | 13 | 306 | 9.7 | 11.3 | 0.00 | 0.00 | 0.00 | 88 | 1012.0 |
| 20260509233628 | 13 | 263 | 4.8 | 4.8 | 0.00 | 0.00 | 0.00 | 87 | 1012.0 |
| 20260509233134 | 13 | 298 | 9.7 | 9.7 | 0.00 | 0.00 | 0.00 | 87 | 1012.0 |
| 20260509232559 | 13 | 203 | 4.8 | 4.8 | 0.00 | 0.00 | 0.00 | 87 | 1012.0 |
| 20260509232015 | 13 | 307 | 6.4 | 6.4 | 0.00 | 0.00 | 0.00 | 87 | 1012.0 |
| 20260509231444 | 13 | 234 | 6.4 | 6.4 | 0.00 | 0.00 | 0.00 | 86 | 1012.0 |
| 20260509230952 | 13 | 296 | 11.3 | 11.3 | 0.00 | 0.00 | 0.00 | 86 | 1012.0 |
| 20260509230444 | 13 | 330 | 4.8 | 4.8 | 0.00 | 0.00 | 0.00 | 86 | 1012.0 |
| 20260509225946 | 13 | 332 | 4.8 | 4.8 | 0.00 | 0.00 | 0.00 | 85 | 1012.0 |
| 20260509225452 | 13 | 276 | 6.4 | 6.4 | 0.00 | 0.00 | 0.00 | 85 | 1012.0 |
| 20260509224956 | 13 | 201 | 4.8 | 4.8 | 0.00 | 0.00 | 0.00 | 85 | 1012.0 |
| 20260509224655 | 13 | 156 | 6.4 | 6.4 | 0.00 | 0.00 | 0.00 | 85 | 1012.0 |
| 20260509224503 | 13 | 294 | 4.8 | 4.8 | 0.00 | 0.00 | 0.00 | 86 | 1012.0 |
| 20260509223757 | 13 | 321 | 4.8 | 4.8 | 0.00 | 0.00 | 0.00 | 86 | 1012.0 |
| 20260509223241 | 13 | 282 | 6.4 | 6.4 | 0.00 | 0.00 | 0.00 | 86 | 1012.0 |
| 20260509222748 | 13 | 250 | 6.4 | 6.4 | 0.00 | 0.00 | 0.00 | 86 | 1012.0 |
| 20260509222517 | 13 | 332 | 6.4 | 6.4 | 0.00 | 0.00 | 0.00 | 86 | 1012.0 |
| 20260509222218 | 13 | 336 | 6.4 | 6.4 | 0.00 | 0.00 | 0.00 | 86 | 1012.0 |
| 20260509221714 | 13 | 164 | 6.4 | 6.4 | 0.00 | 0.00 | 0.00 | 86 | 1012.0 |
| 20260509221211 | 13 | 48 | 11.3 | 11.3 | 0.00 | 0.00 | 0.00 | 86 | 1012.0 |
| 20260509221143 | 13 | 217 | 8.0 | 8.0 | 0.00 | 0.00 | 0.00 | 86 | 1012.0 |
| 20260509220711 | 13 | 262 | 4.8 | 4.8 | 0.00 | 0.00 | 0.00 | 86 | 1012.0 |
| 20260509220205 | 13 | 343 | 6.4 | 6.4 | 0.00 | 0.00 | 0.00 | 87 | 1012.0 |
| 20260509215514 | 13 | 162 | 11.3 | 11.3 | 0.00 | 0.00 | 0.46 | 87 | 1012.0 |
| 20260509215021 | 13 | 205 | 4.8 | 4.8 | 0.00 | 0.00 | 0.46 | 87 | 1012.0 |
| 20260509214518 | 13 | 16 | 6.4 | 6.4 | 0.00 | 0.00 | 0.46 | 87 | 1012.0 |
| 20260509214421 | 13 | 42 | 4.8 | 4.8 | 0.00 | 0.00 | 0.46 | 87 | 1012.0 |
| 20260509214028 | 13 | 84 | 6.4 | 6.4 | 0.00 | 0.00 | 0.46 | 87 | 1012.0 |
| 20260509213523 | 13 | 293 | 12.9 | 14.5 | 0.00 | 0.00 | 0.46 | 87 | 1012.0 |
| 20260509213021 | 13 | 312 | 4.8 | 4.8 | 0.00 | 0.00 | 0.46 | 87 | 1013.0 |
| 20260509212842 | 13 | 230 | 9.7 | 9.7 | 0.00 | 0.00 | 0.46 | 87 | 1013.0 |
| 20260509212531 | 13 | 252 | 4.8 | 4.8 | 0.00 | 0.00 | 0.46 | 87 | 1013.0 |
| 20260509212028 | 13 | 216 | 6.4 | 6.4 | 0.00 | 0.00 | 0.46 | 88 | 1013.0 |
| 20260509211519 | 13 | 252 | 9.7 | 9.7 | 0.00 | 0.00 | 0.46 | 88 | 1013.0 |
| 20260509211006 | 13 | 330 | 4.8 | 4.8 | 0.00 | 0.00 | 0.46 | 88 | 1013.0 |
| 20260509210503 | 13 | 286 | 6.4 | 6.4 | 0.00 | 0.00 | 0.46 | 88 | 1013.0 |
| 20260509205942 | 13 | 350 | 6.4 | 6.4 | 0.00 | 0.00 | 0.46 | 87 | 1012.0 |
| 20260509205451 | 13 | 332 | 6.4 | 6.4 | 0.00 | 0.00 | 0.46 | 87 | 1012.0 |
| 20260509204929 | 13 | 210 | 4.8 | 4.8 | 0.00 | 0.00 | 0.46 | 88 | 1012.0 |
| 20260509204418 | 13 | 312 | 6.4 | 6.4 | 0.00 | 0.00 | 0.46 | 88 | 1012.0 |
| 20260509204117 | 13 | 95 | 4.8 | 4.8 | 0.00 | 0.00 | 0.46 | 88 | 1012.0 |
| 20260509203924 | 13 | 106 | 4.8 | 4.8 | 0.00 | 0.00 | 0.46 | 88 | 1012.0 |
| 20260509203432 | 13 | 298 | 11.3 | 12.9 | 0.00 | 0.00 | 0.46 | 88 | 1012.0 |
| 20260509203337 | 13 | 288 | 8.0 | 8.0 | 0.00 | 0.00 | 0.46 | 88 | 1012.0 |
| 20260509202215 | 13 | 305 | 4.8 | 4.8 | 0.00 | 0.00 | 0.46 | 88 | 1012.0 |
| 20260509201720 | 13 | 300 | 4.8 | 4.8 | 0.00 | 0.00 | 0.46 | 87 | 1012.0 |
| 20260509201228 | 13 | 130 | 6.4 | 6.4 | 0.00 | 0.00 | 0.46 | 87 | 1012.0 |
| 20260509200646 | 13 | 180 | 8.0 | 8.0 | 0.00 | 0.00 | 0.46 | 86 | 1012.0 |
| 20260509200041 | 13 | 191 | 4.8 | 4.8 | 0.00 | 0.00 | 0.46 | 85 | 1012.0 |
| 20260509195351 | 14 | 250 | 9.7 | 11.3 | 0.00 | 0.00 | 0.46 | 84 | 1012.0 |
| 20260509194819 | 13 | 48 | 4.8 | 4.8 | 0.00 | 0.00 | 0.46 | 84 | 1012.0 |
| 20260509194327 | 13 | 84 | 4.8 | 4.8 | 0.00 | 0.00 | 0.46 | 84 | 1012.0 |
| 20260509193832 | 13 | 168 | 6.4 | 6.4 | 0.00 | 0.00 | 0.46 | 85 | 1012.0 |
| 20260509193215 | 13 | 205 | 4.8 | 4.8 | 0.00 | 0.00 | 0.46 | 85 | 1012.0 |
| 20260509192336 | 13 | 342 | 6.4 | 6.4 | 0.00 | 0.00 | 0.46 | 85 | 1011.0 |
| 20260509191517 | 14 | 72 | 6.4 | 6.4 | 0.00 | 0.00 | 0.46 | 85 | 1011.0 |
| 20260509190909 | 14 | 150 | 6.4 | 6.4 | 0.00 | 0.00 | 0.46 | 85 | 1011.0 |
| 20260509190017 | 14 | 78 | 6.4 | 6.4 | 0.00 | 0.00 | 0.46 | 85 | 1011.0 |
| 20260509185523 | 14 | 226 | 4.8 | 4.8 | 0.00 | 0.00 | 0.46 | 84 | 1011.0 |
| 20260509185004 | 14 | 114 | 4.8 | 4.8 | 0.00 | 0.00 | 0.46 | 84 | 1011.0 |
| 20260509184512 | 14 | 153 | 4.8 | 4.8 | 0.00 | 0.00 | 0.46 | 85 | 1011.0 |
| 20260509183952 | 14 | 150 | 11.3 | 11.3 | 0.00 | 0.00 | 0.46 | 87 | 1011.0 |
| 20260509183420 | 14 | 84 | 8.0 | 8.0 | 0.00 | 0.00 | 0.46 | 87 | 1011.0 |
| 20260509182917 | 15 | 114 | 4.8 | 4.8 | 0.00 | 0.00 | 0.46 | 86 | 1011.0 |
| 20260509182420 | 15 | 186 | 4.8 | 4.8 | 0.10 | 0.00 | 0.46 | 85 | 1011.0 |
| 20260509181856 | 15 | 227 | 6.4 | 6.4 | 0.08 | 0.00 | 0.43 | 83 | 1011.0 |
| 20260509181355 | 16 | 210 | 6.4 | 6.4 | 0.00 | 0.00 | 0.41 | 79 | 1011.0 |
| 20260509180853 | 17 | 168 | 4.8 | 4.8 | 0.00 | 0.00 | 0.38 | 75 | 1011.0 |
| 20260509180355 | 17 | 82 | 12.9 | 14.5 | 0.00 | 0.00 | 0.38 | 74 | 1011.0 |
| 20260509175845 | 17 | 294 | 4.8 | 4.8 | 0.00 | 0.00 | 0.38 | 72 | 1011.0 |
| 20260509175326 | 18 | 295 | 9.7 | 9.7 | 0.00 | 0.00 | 0.38 | 72 | 1011.0 |
| 20260509174702 | 18 | 6 | 4.8 | 4.8 | 0.00 | 0.00 | 0.38 | 70 | 1011.0 |
| 20260509174050 | 18 | 330 | 6.4 | 6.4 | 0.00 | 0.00 | 0.38 | 68 | 1011.0 |
| 20260509173600 | 18 | 24 | 9.7 | 9.7 | 0.00 | 0.00 | 0.38 | 66 | 1011.0 |
| 20260509173029 | 18 | 170 | 4.8 | 4.8 | 0.00 | 0.00 | 0.38 | 66 | 1011.0 |
| 20260509172533 | 18 | 60 | 4.8 | 4.8 | 0.00 | 0.00 | 0.38 | 66 | 1011.0 |
| 20260509172040 | 19 | 289 | 11.3 | 11.3 | 0.00 | 0.00 | 0.38 | 65 | 1011.0 |
| 20260509171533 | 19 | 138 | 6.4 | 6.4 | 0.00 | 0.00 | 0.38 | 64 | 1011.0 |
| 20260509171037 | 19 | 150 | 11.3 | 12.9 | 0.00 | 0.00 | 0.38 | 64 | 1011.0 |
| 20260509170536 | 20 | 89 | 6.4 | 6.4 | 0.00 | 0.00 | 0.38 | 64 | 1011.0 |
| 20260509165955 | 20 | 186 | 4.8 | 4.8 | 0.00 | 0.00 | 0.38 | 63 | 1011.0 |
| 20260509165455 | 20 | 313 | 6.4 | 6.4 | 0.00 | 0.00 | 0.38 | 62 | 1011.0 |
| 20260509165004 | 21 | 238 | 6.4 | 6.4 | 0.00 | 0.00 | 0.38 | 60 | 1011.0 |
| 20260509164513 | 21 | 292 | 4.8 | 4.8 | 0.00 | 0.00 | 0.38 | 59 | 1011.0 |
| 20260509164021 | 21 | 270 | 4.8 | 4.8 | 0.00 | 0.00 | 0.38 | 57 | 1011.0 |
| 20260509163433 | 21 | 270 | 6.4 | 6.4 | 0.00 | 0.00 | 0.38 | 56 | 1011.0 |
| 20260509162206 | 21 | 232 | 4.8 | 4.8 | 0.00 | 0.00 | 0.38 | 55 | 1011.0 |
| 20260509161715 | 22 | 282 | 6.4 | 6.4 | 0.00 | 0.00 | 0.38 | 54 | 1011.0 |
| 20260509161217 | 22 | 252 | 6.4 | 6.4 | 0.00 | 0.00 | 0.38 | 53 | 1011.0 |
| 20260509160722 | 22 | 257 | 4.8 | 4.8 | 0.00 | 0.00 | 0.38 | 53 | 1011.0 |
| 20260509160230 | 22 | 150 | 4.8 | 4.8 | 0.00 | 0.00 | 0.38 | 52 | 1011.0 |
| 20260509155629 | 22 | 286 | 6.4 | 6.4 | 0.00 | 0.00 | 0.38 | 54 | 1011.0 |
| 20260509155133 | 22 | 348 | 8.0 | 8.0 | 0.00 | 0.00 | 0.38 | 55 | 1011.0 |
| 20260509154542 | 22 | 349 | 4.8 | 4.8 | 0.00 | 0.00 | 0.38 | 55 | 1011.0 |
| 20260509153656 | 22 | 208 | 4.8 | 4.8 | 0.00 | 0.00 | 0.38 | 52 | 1011.0 |
| 20260509153100 | 21 | 318 | 6.4 | 6.4 | 0.00 | 0.00 | 0.38 | 54 | 1011.0 |
| 20260509152445 | 21 | 296 | 6.4 | 6.4 | 0.00 | 0.00 | 0.38 | 55 | 1011.0 |
| 20260509151901 | 21 | 265 | 4.8 | 4.8 | 0.00 | 0.00 | 0.38 | 54 | 1011.0 |
| 20260509151401 | 22 | 4 | 6.4 | 6.4 | 0.00 | 0.00 | 0.38 | 53 | 1011.0 |
| 20260509150820 | 22 | 22 | 11.3 | 12.9 | 0.00 | 0.00 | 0.38 | 51 | 1011.0 |
| 20260509150304 | 23 | 59 | 6.4 | 6.4 | 0.00 | 0.00 | 0.38 | 51 | 1011.0 |
| 20260509145802 | 22 | 288 | 6.4 | 6.4 | 0.00 | 0.00 | 0.38 | 50 | 1011.0 |
| 20260509145312 | 23 | 294 | 4.8 | 4.8 | 0.00 | 0.00 | 0.38 | 50 | 1011.0 |
| 20260509144819 | 23 | 335 | 8.0 | 8.0 | 0.00 | 0.00 | 0.38 | 51 | 1011.0 |
| 20260509144317 | 23 | 41 | 4.8 | 4.8 | 0.00 | 0.00 | 0.38 | 52 | 1011.0 |
| 20260509143814 | 23 | 48 | 11.3 | 11.3 | 0.00 | 0.00 | 0.38 | 50 | 1011.0 |
| 20260509143314 | 23 | 96 | 6.4 | 6.4 | 0.00 | 0.00 | 0.38 | 50 | 1011.0 |
| 20260509142811 | 22 | 240 | 6.4 | 6.4 | 0.00 | 0.00 | 0.38 | 51 | 1011.0 |
| 20260509142311 | 22 | 25 | 11.3 | 11.3 | 0.00 | 0.00 | 0.38 | 49 | 1011.0 |
| 20260509141817 | 23 | 354 | 9.7 | 11.3 | 0.00 | 0.00 | 0.38 | 49 | 1011.0 |
| 20260509141328 | 23 | 326 | 14.5 | 14.5 | 0.00 | 0.00 | 0.38 | 50 | 1011.0 |
| 20260509140830 | 22 | 282 | 4.8 | 4.8 | 0.00 | 0.00 | 0.38 | 51 | 1011.0 |
| 20260509140329 | 22 | 216 | 6.4 | 6.4 | 0.00 | 0.00 | 0.38 | 52 | 1011.0 |
| 20260509135833 | 22 | 226 | 6.4 | 6.4 | 0.00 | 0.00 | 0.38 | 53 | 1011.0 |
| 20260509135334 | 21 | 240 | 8.0 | 8.0 | 0.00 | 0.00 | 0.38 | 52 | 1012.0 |
| 20260509134837 | 21 | 292 | 6.4 | 6.4 | 0.00 | 0.00 | 0.38 | 54 | 1012.0 |
| 20260509134334 | 22 | 102 | 8.0 | 8.0 | 0.00 | 0.00 | 0.38 | 53 | 1012.0 |
| 20260509133843 | 22 | 340 | 8.0 | 8.0 | 0.00 | 0.00 | 0.38 | 52 | 1012.0 |
| 20260509133350 | 22 | 306 | 12.9 | 12.9 | 0.00 | 0.00 | 0.38 | 51 | 1012.0 |
| 20260509132900 | 22 | 59 | 4.8 | 4.8 | 0.00 | 0.00 | 0.38 | 55 | 1012.0 |
| 20260509132359 | 21 | 294 | 9.7 | 11.3 | 0.00 | 0.00 | 0.38 | 56 | 1012.0 |
| 20260509131909 | 21 | 358 | 17.7 | 19.3 | 0.00 | 0.00 | 0.38 | 57 | 1012.0 |
| 20260509131415 | 21 | 138 | 12.9 | 12.9 | 0.00 | 0.00 | 0.38 | 55 | 1012.0 |
| 20260509130924 | 21 | 12 | 9.7 | 11.3 | 0.00 | 0.00 | 0.38 | 55 | 1012.0 |
| 20260509130428 | 21 | 354 | 11.3 | 11.3 | 0.00 | 0.00 | 0.38 | 55 | 1012.0 |
| 20260509125923 | 21 | 166 | 14.5 | 16.1 | 0.00 | 0.00 | 0.38 | 54 | 1012.0 |
| 20260509125420 | 21 | 61 | 6.4 | 6.4 | 0.00 | 0.00 | 0.38 | 53 | 1012.0 |
| 20260509124927 | 21 | 283 | 9.7 | 9.7 | 0.00 | 0.00 | 0.38 | 55 | 1012.0 |
| 20260509124425 | 21 | 348 | 9.7 | 11.3 | 0.00 | 0.00 | 0.38 | 55 | 1012.0 |
| 20260509123934 | 21 | 310 | 9.7 | 11.3 | 0.00 | 0.00 | 0.38 | 55 | 1012.0 |
| 20260509123434 | 20 | 310 | 12.9 | 12.9 | 0.00 | 0.00 | 0.38 | 56 | 1012.0 |
| 20260509122933 | 20 | 154 | 6.4 | 6.4 | 0.00 | 0.00 | 0.38 | 59 | 1012.0 |
| 20260509122432 | 21 | 265 | 9.7 | 9.7 | 0.00 | 0.00 | 0.38 | 58 | 1012.0 |
| 20260509122215 | 21 | 318 | 11.3 | 12.9 | 0.00 | 0.00 | 0.38 | 59 | 1012.0 |
| 20260509121725 | 20 | 66 | 6.4 | 6.4 | 0.00 | 0.00 | 0.38 | 59 | 1012.0 |
| 20260509121225 | 19 | 300 | 6.4 | 6.4 | 0.00 | 0.00 | 0.38 | 61 | 1012.0 |
| 20260509120733 | 18 | 348 | 8.0 | 8.0 | 0.00 | 0.00 | 0.38 | 61 | 1012.0 |
| 20260509120238 | 19 | 239 | 12.9 | 14.5 | 0.00 | 0.00 | 0.38 | 60 | 1012.0 |
| 20260509115923 | 19 | 227 | 11.3 | 12.9 | 0.00 | 0.00 | 0.38 | 61 | 1012.0 |
| 20260509115656 | 18 | 329 | 4.8 | 4.8 | 0.00 | 0.00 | 0.38 | 63 | 1012.0 |
| 20260509115203 | 19 | 305 | 6.4 | 6.4 | 0.00 | 0.00 | 0.38 | 62 | 1012.0 |
| 20260509114700 | 19 | 354 | 4.8 | 4.8 | 0.00 | 0.00 | 0.38 | 62 | 1012.0 |
| 20260509114107 | 18 | 326 | 11.3 | 11.3 | 0.00 | 0.00 | 0.38 | 63 | 1012.0 |
| 20260509113614 | 18 | 328 | 12.9 | 14.5 | 0.00 | 0.00 | 0.38 | 61 | 1012.0 |
| 20260509113123 | 18 | 354 | 6.4 | 6.4 | 0.00 | 0.00 | 0.38 | 63 | 1012.0 |
| 20260509112905 | 18 | 32 | 4.8 | 4.8 | 0.00 | 0.00 | 0.38 | 65 | 1012.0 |
| 20260509112556 | 18 | 288 | 8.0 | 8.0 | 0.00 | 0.00 | 0.38 | 64 | 1012.0 |
| 20260509112100 | 18 | 276 | 14.5 | 14.5 | 0.00 | 0.00 | 0.38 | 64 | 1012.0 |
| 20260509111605 | 18 | 276 | 14.5 | 16.1 | 0.00 | 0.00 | 0.38 | 64 | 1013.0 |
| 20260509111110 | 18 | 262 | 14.5 | 16.1 | 0.00 | 0.00 | 0.38 | 65 | 1013.0 |
| 20260509110602 | 17 | 239 | 8.0 | 8.0 | 0.00 | 0.00 | 0.38 | 67 | 1013.0 |
| 20260509110052 | 17 | 308 | 11.3 | 12.9 | 0.00 | 0.00 | 0.38 | 66 | 1013.0 |
| 20260509105600 | 17 | 301 | 4.8 | 4.8 | 0.00 | 0.00 | 0.38 | 67 | 1013.0 |
| 20260509105107 | 17 | 296 | 6.4 | 6.4 | 0.00 | 0.00 | 0.38 | 68 | 1013.0 |
| 20260509104615 | 17 | 329 | 9.7 | 9.7 | 0.00 | 0.00 | 0.38 | 69 | 1013.0 |
| 20260509104208 | 17 | 12 | 6.4 | 6.4 | 0.00 | 0.00 | 0.38 | 68 | 1013.0 |
| 20260509104114 | 17 | 312 | 9.7 | 9.7 | 0.00 | 0.00 | 0.38 | 68 | 1013.0 |
| 20260509103618 | 16 | 312 | 4.8 | 4.8 | 0.00 | 0.00 | 0.38 | 70 | 1013.0 |
| 20260509103117 | 16 | 317 | 8.0 | 8.0 | 0.00 | 0.00 | 0.38 | 70 | 1013.0 |
| 20260509102622 | 17 | 195 | 6.4 | 6.4 | 0.00 | 0.00 | 0.38 | 71 | 1013.0 |
| 20260509102131 | 17 | 234 | 14.5 | 14.5 | 0.00 | 0.00 | 0.38 | 69 | 1013.0 |
| 20260509101637 | 16 | 9 | 8.0 | 8.0 | 0.00 | 0.00 | 0.38 | 70 | 1013.0 |
| 20260509101137 | 16 | 173 | 19.3 | 20.9 | 0.00 | 0.00 | 0.38 | 72 | 1013.0 |
| 20260509100620 | 15 | 337 | 4.8 | 4.8 | 0.00 | 0.00 | 0.38 | 72 | 1013.0 |
| 20260509100049 | 15 | 306 | 9.7 | 9.7 | 0.00 | 0.00 | 0.38 | 73 | 1013.0 |
| 20260509095553 | 15 | 313 | 6.4 | 6.4 | 0.00 | 0.00 | 0.38 | 73 | 1013.0 |
| 20260509095053 | 15 | 299 | 6.4 | 6.4 | 0.00 | 0.00 | 0.38 | 74 | 1013.0 |
| 20260509094558 | 14 | 301 | 11.3 | 11.3 | 0.00 | 0.00 | 0.38 | 76 | 1013.0 |
| 20260509094503 | 14 | 95 | 11.3 | 12.9 | 0.00 | 0.00 | 0.38 | 76 | 1013.0 |
| 20260509094108 | 14 | 126 | 8.0 | 8.0 | 0.00 | 0.00 | 0.38 | 77 | 1013.0 |
| 20260509093929 | 14 | 278 | 8.0 | 8.0 | 0.00 | 0.00 | 0.38 | 78 | 1013.0 |
| 20260509093614 | 14 | 258 | 9.7 | 9.7 | 0.00 | 0.00 | 0.38 | 78 | 1013.0 |
| 20260509093110 | 14 | 293 | 9.7 | 9.7 | 0.00 | 0.00 | 0.38 | 78 | 1013.0 |
| 20260509092616 | 14 | 324 | 11.3 | 12.9 | 0.00 | 0.00 | 0.38 | 80 | 1013.0 |
| 20260509092115 | 13 | 326 | 6.4 | 6.4 | 0.00 | 0.00 | 0.38 | 80 | 1013.0 |
| 20260509091614 | 13 | 239 | 6.4 | 6.4 | 0.00 | 0.00 | 0.38 | 79 | 1013.0 |
| 20260509091051 | 14 | 252 | 6.4 | 6.4 | 0.00 | 0.00 | 0.38 | 80 | 1013.0 |
| 20260509090553 | 14 | 281 | 6.4 | 6.4 | 0.00 | 0.00 | 0.38 | 79 | 1013.0 |
| 20260509090047 | 14 | 339 | 4.8 | 4.8 | 0.00 | 0.00 | 0.38 | 80 | 1013.0 |
| 20260509085545 | 14 | 299 | 8.0 | 8.0 | 0.00 | 0.00 | 0.38 | 80 | 1013.0 |
| 20260509085042 | 13 | 275 | 6.4 | 6.4 | 0.00 | 0.00 | 0.38 | 82 | 1013.0 |
| 20260509084541 | 13 | 290 | 6.4 | 6.4 | 0.00 | 0.00 | 0.38 | 83 | 1013.0 |
| 20260509084236 | 13 | 270 | 8.0 | 8.0 | 0.00 | 0.00 | 0.38 | 83 | 1013.0 |
| 20260509084045 | 13 | 156 | 8.0 | 8.0 | 0.00 | 0.00 | 0.38 | 82 | 1013.0 |
| 20260509083553 | 12 | 336 | 6.4 | 6.4 | 0.00 | 0.00 | 0.38 | 85 | 1013.0 |
| 20260509083050 | 12 | 293 | 6.4 | 6.4 | 0.00 | 0.00 | 0.38 | 85 | 1013.0 |
| 20260509082442 | 12 | 288 | 11.3 | 12.9 | 0.00 | 0.00 | 0.38 | 85 | 1013.0 |
| 20260509081946 | 12 | 168 | 11.3 | 11.3 | 0.00 | 0.00 | 0.38 | 86 | 1013.0 |